Time;durP1;ratioP1;P1;durP2;ratioP2;P2;SDS_P1;SDS_P2;PMS_P1;PMS_P2;Temp;Humidity;BMP_temperature;BMP_pressure;BME280_temperature;BME280_humidity;BME280_pressure;Samples;Min_cycle;Max_cycle;Signal;HPM_P1;HPM_P2
2021/08/14 00:02:07;;;;;;;12.90;9.65;;;21.00;99.90;;;;;;5070381;28;20099;-49
2021/08/14 00:04:33;;;;;;;12.05;9.73;;;21.00;99.90;;;;;;5072474;28;20020;-50
2021/08/14 00:06:58;;;;;;;15.27;10.20;;;21.00;99.90;;;;;;5055180;28;20486;-51
2021/08/14 00:09:24;;;;;;;11.07;9.57;;;20.90;99.90;;;;;;5041901;28;20021;-48
2021/08/14 00:11:49;;;;;;;13.45;10.07;;;20.90;99.90;;;;;;5071802;28;20516;-48
2021/08/14 00:14:15;;;;;;;11.27;10.07;;;20.90;99.90;;;;;;5066041;28;20041;-48
2021/08/14 00:16:40;;;;;;;12.18;9.65;;;20.90;99.90;;;;;;5051923;28;20051;-49
2021/08/14 00:19:06;;;;;;;14.32;10.30;;;20.80;99.90;;;;;;5055767;28;20032;-49
2021/08/14 00:21:32;;;;;;;12.40;10.25;;;20.90;99.90;;;;;;5071257;28;20040;-49
2021/08/14 00:23:57;;;;;;;13.20;9.88;;;20.80;99.90;;;;;;5068718;28;20031;-48
2021/08/14 00:26:23;;;;;;;12.13;10.52;;;20.80;99.90;;;;;;5033742;28;20036;-50
2021/08/14 00:28:48;;;;;;;16.02;11.32;;;20.80;99.90;;;;;;5051887;28;20033;-48
2021/08/14 00:31:14;;;;;;;14.77;10.10;;;20.80;99.90;;;;;;5053482;28;20435;-49
2021/08/14 00:33:39;;;;;;;11.35;10.13;;;20.70;99.90;;;;;;5089630;22;20040;-44
2021/08/14 00:36:05;;;;;;;10.98;9.88;;;20.70;99.90;;;;;;5091273;28;20055;-46
2021/08/14 00:38:30;;;;;;;12.13;9.98;;;20.70;99.90;;;;;;5090832;28;20035;-43
2021/08/14 00:40:56;;;;;;;12.30;9.77;;;20.70;99.90;;;;;;5091195;28;20035;-43
2021/08/14 00:43:22;;;;;;;11.20;9.85;;;20.60;99.90;;;;;;5087472;28;20029;-49
2021/08/14 00:45:48;;;;;;;13.25;10.15;;;20.60;99.90;;;;;;5070755;28;20075;-46
2021/08/14 00:48:13;;;;;;;14.07;9.70;;;20.50;99.90;;;;;;5071276;28;20029;-49
2021/08/14 00:50:39;;;;;;;13.27;9.82;;;20.50;99.90;;;;;;5057166;28;20055;-47
2021/08/14 00:53:05;;;;;;;12.00;9.73;;;20.50;99.90;;;;;;5051089;28;20029;-45
2021/08/14 00:55:31;;;;;;;11.75;10.25;;;20.40;99.90;;;;;;5063084;28;20052;-48
2021/08/14 00:57:57;;;;;;;13.32;9.68;;;20.50;99.90;;;;;;5070539;28;20060;-44
2021/08/14 01:00:23;;;;;;;11.63;9.40;;;20.40;99.90;;;;;;5059887;28;20044;-45
2021/08/14 01:02:49;;;;;;;11.40;9.52;;;20.40;99.90;;;;;;5055183;28;20032;-48
2021/08/14 01:05:16;;;;;;;13.80;9.48;;;20.40;99.90;;;;;;5070655;28;20086;-47
2021/08/14 01:07:42;;;;;;;15.95;10.73;;;20.40;99.90;;;;;;5066912;28;20032;-45
2021/08/14 01:10:08;;;;;;;12.07;10.57;;;20.40;99.90;;;;;;5051148;28;20021;-48
2021/08/14 01:12:33;;;;;;;15.02;10.23;;;20.30;99.90;;;;;;5052462;28;20470;-46
2021/08/14 01:14:59;;;;;;;12.43;10.07;;;20.30;99.90;;;;;;5070477;28;20028;-48
2021/08/14 01:17:25;;;;;;;16.48;9.77;;;20.30;99.90;;;;;;5069655;28;20086;-45
2021/08/14 01:19:50;;;;;;;24.67;10.30;;;20.30;99.90;;;;;;5070085;28;20378;-48
2021/08/14 01:22:16;;;;;;;10.93;9.15;;;20.20;99.90;;;;;;5056434;28;20064;-48
2021/08/14 01:24:43;;;;;;;13.10;10.23;;;20.20;99.90;;;;;;5050490;28;20043;-44
2021/08/14 01:27:09;;;;;;;11.10;9.48;;;20.20;99.90;;;;;;5063153;28;20124;-47
2021/08/14 01:29:36;;;;;;;11.95;10.25;;;20.10;99.90;;;;;;5070444;28;20431;-46
2021/08/14 01:32:03;;;;;;;11.85;9.68;;;20.10;99.90;;;;;;5058817;28;20067;-48
2021/08/14 01:34:28;;;;;;;16.70;10.73;;;20.10;99.90;;;;;;5050411;28;20469;-44
2021/08/14 01:36:54;;;;;;;15.02;10.57;;;20.00;99.90;;;;;;5060186;28;20036;-46
2021/08/14 01:39:19;;;;;;;16.13;11.18;;;20.00;99.90;;;;;;5069774;28;20028;-44
2021/08/14 01:41:55;;;;;;;12.32;10.65;;;20.00;99.90;;;;;;5061966;28;20037;-49
2021/08/14 01:44:20;;;;;;;13.98;11.48;;;20.00;99.90;;;;;;5050312;28;20359;-47
2021/08/14 01:46:46;;;;;;;14.27;10.15;;;19.90;99.90;;;;;;5057859;28;20028;-46
2021/08/14 01:49:11;;;;;;;12.55;10.48;;;19.90;99.90;;;;;;5064871;28;20029;-43
2021/08/14 01:51:37;;;;;;;11.02;9.07;;;19.80;99.90;;;;;;5051539;28;20025;-48
2021/08/14 01:54:04;;;;;;;11.98;10.75;;;19.80;99.90;;;;;;5052889;28;20498;-43
2021/08/14 01:56:31;;;;;;;11.25;9.88;;;19.70;99.90;;;;;;5070359;28;20031;-50
2021/08/14 01:58:57;;;;;;;13.55;9.85;;;19.70;99.90;;;;;;5063408;28;20029;-43
2021/08/14 02:01:23;;;;;;;13.77;10.82;;;19.70;99.90;;;;;;5050187;28;20120;-47
2021/08/14 02:03:48;;;;;;;12.88;10.02;;;19.70;99.90;;;;;;5051216;28;20124;-47
2021/08/14 02:06:15;;;;;;;12.93;10.00;;;19.70;99.90;;;;;;5050235;28;20024;-50
2021/08/14 02:08:41;;;;;;;14.35;10.55;;;19.70;99.90;;;;;;5052305;28;20029;-45
2021/08/14 02:11:19;;;;;;;13.02;10.10;;;19.80;99.90;;;;;;5069968;28;20040;-52
2021/08/14 02:13:47;;;;;;;11.77;9.45;;;19.80;99.90;;;;;;5067237;28;20035;-48
2021/08/14 02:16:13;;;;;;;11.98;9.95;;;19.80;99.90;;;;;;5050223;28;20116;-45
2021/08/14 02:18:39;;;;;;;14.02;11.02;;;19.80;99.90;;;;;;5066892;28;20024;-44
2021/08/14 02:21:05;;;;;;;13.23;9.30;;;19.80;99.90;;;;;;5073920;28;20032;-44
2021/08/14 02:23:31;;;;;;;15.57;10.77;;;19.80;99.90;;;;;;5059140;28;20402;-43
2021/08/14 02:25:57;;;;;;;15.48;10.93;;;19.80;99.90;;;;;;5054277;28;20033;-47
2021/08/14 02:28:22;;;;;;;14.73;10.45;;;19.70;99.90;;;;;;5066621;28;20037;-52
2021/08/14 02:30:48;;;;;;;16.08;10.98;;;19.80;99.90;;;;;;5073715;28;20519;-49
2021/08/14 02:33:13;;;;;;;13.32;10.30;;;19.70;99.90;;;;;;5062484;28;20043;-44
2021/08/14 02:35:39;;;;;;;12.65;10.27;;;19.70;99.90;;;;;;5053598;28;20104;-46
2021/08/14 02:38:05;;;;;;;10.80;9.52;;;19.70;99.90;;;;;;5053797;28;20033;-51
2021/08/14 02:40:32;;;;;;;10.82;9.73;;;19.50;99.90;;;;;;5053406;28;20037;-45
2021/08/14 02:42:58;;;;;;;17.67;11.40;;;19.40;99.90;;;;;;5064998;28;20028;-44
2021/08/14 02:45:23;;;;;;;13.65;9.88;;;19.40;99.90;;;;;;5071904;28;20020;-44
2021/08/14 02:47:49;;;;;;;13.52;9.82;;;19.20;99.90;;;;;;5072905;28;20017;-46
2021/08/14 02:50:15;;;;;;;14.20;11.07;;;19.20;99.90;;;;;;5069732;28;20033;-48
2021/08/14 02:52:40;;;;;;;17.70;10.68;;;19.00;99.90;;;;;;5053332;28;20100;-50
2021/08/14 02:55:06;;;;;;;13.65;10.43;;;18.90;99.90;;;;;;5054524;28;20514;-44
2021/08/14 02:57:32;;;;;;;14.32;10.00;;;18.80;99.90;;;;;;5072561;28;20029;-47
2021/08/14 02:59:57;;;;;;;12.80;9.23;;;18.80;99.90;;;;;;5072908;28;20028;-48
2021/08/14 03:02:23;;;;;;;14.57;9.98;;;18.70;99.90;;;;;;5053219;28;20062;-51
2021/08/14 03:04:48;;;;;;;12.10;10.00;;;18.60;99.90;;;;;;5053239;28;20028;-43
2021/08/14 03:07:13;;;;;;;15.00;9.68;;;18.60;99.90;;;;;;5070677;28;20032;-42
2021/08/14 03:09:39;;;;;;;13.05;8.88;;;18.60;99.90;;;;;;5073082;28;20032;-47
2021/08/14 03:12:05;;;;;;;15.15;8.55;;;18.60;99.90;;;;;;5057603;28;20036;-47
2021/08/14 03:14:30;;;;;;;12.48;8.50;;;18.60;99.90;;;;;;5063415;28;20076;-45
2021/08/14 03:16:56;;;;;;;9.68;8.35;;;18.70;99.90;;;;;;5071699;28;20021;-44
2021/08/14 03:19:21;;;;;;;12.25;8.57;;;18.70;99.90;;;;;;5063112;28;20545;-45
2021/08/14 03:21:47;;;;;;;9.63;8.18;;;18.80;99.90;;;;;;5052877;28;20056;-45
2021/08/14 03:24:12;;;;;;;9.90;7.88;;;18.90;99.90;;;;;;5059631;28;20109;-44
2021/08/14 03:26:38;;;;;;;9.85;7.97;;;18.90;99.90;;;;;;5072804;28;20036;-46
2021/08/14 03:29:03;;;;;;;11.73;8.32;;;19.00;99.90;;;;;;5066320;28;20035;-48
2021/08/14 03:31:29;;;;;;;8.75;7.90;;;19.00;99.90;;;;;;5052892;28;20422;-44
2021/08/14 03:33:55;;;;;;;8.45;7.57;;;19.00;99.90;;;;;;5055737;28;20032;-48
2021/08/14 03:36:20;;;;;;;12.73;8.73;;;19.00;99.90;;;;;;5072760;28;20020;-48
2021/08/14 03:38:46;;;;;;;12.85;8.52;;;19.00;99.90;;;;;;5069787;28;20050;-46
2021/08/14 03:41:11;;;;;;;10.50;8.23;;;19.00;99.90;;;;;;5052542;28;20025;-45
2021/08/14 03:43:37;;;;;;;9.30;7.70;;;19.00;99.90;;;;;;5052567;28;20021;-45
2021/08/14 03:46:04;;;;;;;9.80;7.20;;;19.00;99.90;;;;;;5051782;28;20021;-45
2021/08/14 03:48:30;;;;;;;9.02;6.72;;;19.00;99.90;;;;;;5051719;28;20389;-42
2021/08/14 03:50:56;;;;;;;8.73;7.18;;;19.00;99.90;;;;;;5070259;28;20537;-48
2021/08/14 03:53:21;;;;;;;8.07;6.85;;;18.90;99.90;;;;;;5071874;28;20036;-47
2021/08/14 03:55:47;;;;;;;10.13;7.40;;;18.90;99.90;;;;;;5055086;28;20119;-49
2021/08/14 03:58:12;;;;;;;9.20;6.93;;;18.90;99.90;;;;;;5057489;28;20486;-49
2021/08/14 04:00:38;;;;;;;8.00;7.20;;;18.90;99.90;;;;;;5071977;28;20024;-50
2021/08/14 04:03:03;;;;;;;9.60;7.03;;;18.90;99.90;;;;;;5067130;28;20479;-47
2021/08/14 04:05:29;;;;;;;10.02;6.70;;;18.90;99.90;;;;;;5052000;28;20017;-43
2021/08/14 04:07:55;;;;;;;10.98;7.22;;;18.90;99.90;;;;;;5052208;28;20065;-47
2021/08/14 04:10:20;;;;;;;11.82;6.72;;;18.90;99.90;;;;;;5051927;28;20068;-47
2021/08/14 04:12:46;;;;;;;8.52;6.93;;;18.90;99.90;;;;;;5052871;28;20058;-46
2021/08/14 04:15:12;;;;;;;10.90;6.70;;;19.00;99.90;;;;;;5051753;28;20060;-46
2021/08/14 04:17:38;;;;;;;7.70;6.85;;;18.90;99.90;;;;;;5058431;28;20378;-48
2021/08/14 04:20:05;;;;;;;8.23;5.70;;;19.00;99.90;;;;;;5071704;28;20108;-45
2021/08/14 04:22:30;;;;;;;7.47;6.70;;;19.00;99.90;;;;;;5069741;28;20035;-49
2021/08/14 04:24:56;;;;;;;8.63;7.60;;;19.00;99.90;;;;;;5071670;28;20021;-44
2021/08/14 04:27:21;;;;;;;9.93;7.63;;;19.00;99.90;;;;;;5068976;28;20036;-45
2021/08/14 04:29:47;;;;;;;7.72;6.72;;;19.00;99.90;;;;;;5071483;28;20025;-47
2021/08/14 04:32:12;;;;;;;11.00;7.07;;;19.00;99.90;;;;;;5052970;28;20185;-48
2021/08/14 04:34:38;;;;;;;10.48;7.15;;;18.90;99.90;;;;;;5051168;28;20049;-48
2021/08/14 04:37:03;;;;;;;7.63;6.82;;;18.90;99.90;;;;;;5067199;28;20036;-46
2021/08/14 04:39:29;;;;;;;9.43;6.75;;;18.90;99.90;;;;;;5070448;28;20032;-44
2021/08/14 04:41:54;;;;;;;10.40;7.47;;;18.90;99.90;;;;;;5069232;28;20036;-48
2021/08/14 04:44:20;;;;;;;9.73;7.07;;;19.00;99.90;;;;;;5071824;28;20054;-44
2021/08/14 04:46:45;;;;;;;9.93;6.95;;;19.00;99.90;;;;;;5058562;28;20108;-51
2021/08/14 04:49:11;;;;;;;11.60;6.78;;;19.00;99.90;;;;;;5050847;28;20027;-44
2021/08/14 04:51:37;;;;;;;7.70;6.97;;;19.00;99.90;;;;;;5051879;28;20041;-47
2021/08/14 04:54:02;;;;;;;7.55;6.65;;;18.90;99.90;;;;;;5051111;28;20442;-48
2021/08/14 04:56:28;;;;;;;7.05;6.35;;;18.90;99.90;;;;;;5059936;28;20106;-49
2021/08/14 04:58:53;;;;;;;11.13;6.05;;;19.00;99.90;;;;;;5068558;28;20035;-44
2021/08/14 05:01:19;;;;;;;8.15;6.55;;;19.00;99.90;;;;;;5070750;28;20385;-45
2021/08/14 05:03:44;;;;;;;9.23;6.75;;;19.00;99.90;;;;;;5066280;28;20025;-43
2021/08/14 05:06:10;;;;;;;9.00;6.25;;;19.10;99.90;;;;;;5050710;28;20099;-45
2021/08/14 05:08:35;;;;;;;10.73;7.22;;;19.10;99.90;;;;;;5051341;28;20040;-43
2021/08/14 05:11:04;;;;;;;9.43;6.90;;;19.10;99.90;;;;;;5050730;28;20075;-45
2021/08/14 05:13:30;;;;;;;9.65;7.53;;;19.20;99.90;;;;;;5053201;28;20385;-44
2021/08/14 05:15:56;;;;;;;12.15;7.25;;;19.20;99.90;;;;;;5059489;28;20021;-45
2021/08/14 05:18:21;;;;;;;12.93;8.45;;;19.20;99.90;;;;;;5066706;28;20095;-44
2021/08/14 05:20:47;;;;;;;13.27;8.32;;;19.30;99.90;;;;;;5063847;28;20409;-44
2021/08/14 05:23:12;;;;;;;9.82;7.55;;;19.20;99.90;;;;;;5061281;28;20045;-46
2021/08/14 05:25:38;;;;;;;10.15;8.57;;;19.20;99.90;;;;;;5070400;28;20059;-44
2021/08/14 05:28:04;;;;;;;18.77;10.15;;;19.20;99.90;;;;;;5052151;28;20029;-44
2021/08/14 05:30:29;;;;;;;22.13;9.43;;;19.30;99.90;;;;;;5050622;28;20025;-47
2021/08/14 05:32:55;;;;;;;10.52;7.43;;;19.30;99.90;;;;;;5050601;28;20032;-45
2021/08/14 05:35:20;;;;;;;11.52;8.55;;;19.40;99.90;;;;;;5051759;28;20048;-48
2021/08/14 05:37:46;;;;;;;11.05;9.35;;;19.40;99.90;;;;;;5069855;28;20133;-46
2021/08/14 05:40:12;;;;;;;12.27;9.15;;;19.50;99.90;;;;;;5056306;28;20486;-48
2021/08/14 05:42:38;;;;;;;10.73;8.13;;;19.60;99.90;;;;;;5051225;28;20493;-48
2021/08/14 05:45:04;;;;;;;9.55;8.55;;;19.70;99.90;;;;;;5056019;28;20098;-47
2021/08/14 05:47:29;;;;;;;10.13;8.35;;;19.70;99.90;;;;;;5067749;28;20538;-46
2021/08/14 05:49:55;;;;;;;17.50;10.65;;;19.80;99.90;;;;;;5065543;28;20357;-50
2021/08/14 05:52:21;;;;;;;11.68;8.50;;;19.80;99.90;;;;;;5051332;28;20620;-46
2021/08/14 05:54:46;;;;;;;13.98;10.70;;;19.90;99.90;;;;;;5054415;28;20021;-46
2021/08/14 05:57:12;;;;;;;12.68;9.88;;;20.00;99.90;;;;;;5052740;28;20371;-46
2021/08/14 05:59:37;;;;;;;13.80;9.07;;;20.00;99.90;;;;;;5053982;28;20059;-46
2021/08/14 06:02:03;;;;;;;14.45;10.25;;;20.00;99.90;;;;;;5054698;28;20040;-43
2021/08/14 06:04:29;;;;;;;15.18;8.98;;;20.00;99.90;;;;;;5054259;28;20090;-42
2021/08/14 06:06:54;;;;;;;13.55;8.20;;;20.00;99.90;;;;;;5054268;28;20025;-45
2021/08/14 06:09:20;;;;;;;13.40;8.07;;;20.00;99.90;;;;;;5053531;28;20017;-49
2021/08/14 06:11:45;;;;;;;11.10;7.60;;;20.10;99.90;;;;;;5054094;28;20428;-48
2021/08/14 06:14:11;;;;;;;7.57;6.88;;;20.10;99.90;;;;;;5054493;28;20024;-47
2021/08/14 06:16:38;;;;;;;10.50;8.70;;;20.10;99.90;;;;;;5054152;28;20389;-46
2021/08/14 06:19:03;;;;;;;11.05;8.77;;;20.00;99.90;;;;;;5053310;28;20043;-44
2021/08/14 06:21:29;;;;;;;12.43;9.23;;;20.00;99.90;;;;;;5054123;28;20452;-48
2021/08/14 06:23:54;;;;;;;10.63;9.52;;;20.00;99.90;;;;;;5053875;28;20040;-43
2021/08/14 06:26:20;;;;;;;10.88;9.68;;;20.00;99.90;;;;;;5053915;28;20056;-45
2021/08/14 06:28:45;;;;;;;10.88;7.88;;;20.00;99.90;;;;;;5053384;28;20292;-43
2021/08/14 06:31:11;;;;;;;15.90;10.00;;;20.10;99.90;;;;;;5052786;28;20078;-44
2021/08/14 06:36:05;;;;;;;12.50;9.43;;;20.30;99.90;;;;;;5052151;28;20055;-52
2021/08/14 06:38:31;;;;;;;11.00;8.52;;;20.40;99.90;;;;;;5035071;28;20025;-52
2021/08/14 06:40:56;;;;;;;15.90;8.95;;;20.50;99.90;;;;;;5053395;28;20036;-52
2021/08/14 06:43:22;;;;;;;15.45;9.55;;;20.60;99.90;;;;;;5035583;28;20021;-53
2021/08/14 06:45:48;;;;;;;8.88;7.97;;;20.80;99.90;;;;;;5053384;28;20036;-55
2021/08/14 06:48:13;;;;;;;13.88;9.75;;;21.00;99.90;;;;;;5052746;28;20025;-51
2021/08/14 06:50:39;;;;;;;13.68;9.40;;;21.20;99.90;;;;;;5053406;28;20040;-56
2021/08/14 06:53:04;;;;;;;12.73;9.40;;;21.30;99.90;;;;;;5052041;28;20079;-50
2021/08/14 06:55:30;;;;;;;9.27;8.18;;;21.40;99.90;;;;;;5053094;28;20479;-52
2021/08/14 06:57:55;;;;;;;11.15;9.25;;;21.50;99.90;;;;;;5052536;28;20025;-50
2021/08/14 07:00:21;;;;;;;13.38;8.65;;;21.70;99.90;;;;;;5053301;28;20443;-50
2021/08/14 07:02:46;;;;;;;9.65;8.65;;;21.90;99.90;;;;;;5052830;28;20445;-52
2021/08/14 07:05:13;;;;;;;11.00;8.93;;;22.00;99.90;;;;;;5053168;28;20111;-48
2021/08/14 07:07:38;;;;;;;13.32;9.75;;;22.10;99.90;;;;;;5052934;28;20523;-49
2021/08/14 07:10:08;;;;;;;15.25;10.35;;;22.20;99.90;;;;;;5054137;28;20025;-49
2021/08/14 07:12:33;;;;;;;13.48;9.90;;;22.30;99.90;;;;;;5053547;28;20025;-49
2021/08/14 07:14:59;;;;;;;15.38;10.00;;;22.40;99.90;;;;;;5053567;28;20124;-56
2021/08/14 07:17:25;;;;;;;16.25;9.45;;;22.40;99.90;;;;;;5052685;28;20454;-47
2021/08/14 07:19:51;;;;;;;10.90;8.30;;;22.60;99.90;;;;;;5053517;28;20393;-56
2021/08/14 07:22:17;;;;;;;11.55;7.85;;;22.80;99.90;;;;;;5053209;28;20025;-49
2021/08/14 07:24:42;;;;;;;12.13;8.85;;;23.00;99.90;;;;;;5051984;28;20052;-52
2021/08/14 07:27:08;;;;;;;9.93;8.20;;;23.10;99.90;;;;;;5053091;28;20091;-52
2021/08/14 07:29:33;;;;;;;10.20;7.28;;;23.10;99.90;;;;;;5052542;28;20029;-48
2021/08/14 07:31:59;;;;;;;10.55;7.47;;;23.10;99.90;;;;;;5053398;28;20025;-51
2021/08/14 07:34:24;;;;;;;9.93;8.07;;;23.10;99.90;;;;;;5053405;28;20047;-54
2021/08/14 07:36:50;;;;;;;14.25;8.15;;;23.10;99.90;;;;;;5053067;28;20029;-49
2021/08/14 07:39:16;;;;;;;9.80;7.82;;;23.00;99.90;;;;;;5051985;28;20033;-48
2021/08/14 07:41:42;;;;;;;10.35;7.32;;;23.00;99.90;;;;;;5052514;28;20441;-49
2021/08/14 07:44:07;;;;;;;10.52;7.68;;;23.00;99.90;;;;;;5052599;28;20033;-51
2021/08/14 07:46:33;;;;;;;10.45;9.32;;;23.00;99.90;;;;;;5052441;28;20025;-51
2021/08/14 07:48:59;;;;;;;13.60;8.63;;;23.00;99.90;;;;;;5051808;28;20032;-51
2021/08/14 07:51:25;;;;;;;12.65;8.85;;;23.00;99.90;;;;;;5052328;28;20057;-52
2021/08/14 07:53:51;;;;;;;12.05;8.90;;;23.10;99.90;;;;;;5052118;28;20056;-49
2021/08/14 07:56:16;;;;;;;10.88;8.23;;;23.10;99.90;;;;;;5052205;28;20082;-49
2021/08/14 07:58:42;;;;;;;12.15;7.57;;;23.20;99.90;;;;;;5050398;28;20414;-53
2021/08/14 08:01:07;;;;;;;11.52;7.95;;;23.30;99.90;;;;;;5052037;28;20200;-54
2021/08/14 08:03:33;;;;;;;13.40;8.48;;;23.50;99.90;;;;;;5052334;28;20200;-50
2021/08/14 08:05:58;;;;;;;12.43;8.15;;;23.80;99.90;;;;;;5052639;28;20021;-51
2021/08/14 08:08:24;;;;;;;19.80;10.40;;;24.50;99.90;;;;;;5051543;28;20534;-50
2021/08/14 08:10:49;;;;;;;11.20;9.10;;;25.60;99.40;;;;;;5050763;28;20031;-50
2021/08/14 08:13:15;;;;;;;11.93;7.88;;;26.70;98.20;;;;;;5051674;28;20032;-52
2021/08/14 08:15:41;;;;;;;13.95;8.07;;;28.00;96.40;;;;;;5050515;28;20029;-50
2021/08/14 08:18:06;;;;;;;10.25;7.78;;;29.20;94.40;;;;;;5050907;28;20095;-54
2021/08/14 08:20:32;;;;;;;14.27;8.10;;;30.30;92.40;;;;;;5051571;28;20108;-50
2021/08/14 08:22:58;;;;;;;18.17;14.93;;;31.30;90.70;;;;;;5049372;28;20111;-53
2021/08/14 08:25:24;;;;;;;11.35;7.90;;;32.30;87.70;;;;;;5051010;28;20052;-50
2021/08/14 08:27:50;;;;;;;10.45;6.43;;;32.90;84.90;;;;;;5050510;28;20021;-49
2021/08/14 08:30:19;;;;;;;9.25;6.65;;;33.40;82.50;;;;;;5051189;28;20025;-54
2021/08/14 08:32:45;;;;;;;8.95;6.60;;;33.90;80.60;;;;;;5049600;28;20021;-52
2021/08/14 08:35:12;;;;;;;9.07;7.30;;;34.30;80.20;;;;;;5047537;28;20040;-55
2021/08/14 08:37:38;;;;;;;8.40;5.65;;;34.90;76.70;;;;;;5035131;28;20037;-52
2021/08/14 08:40:06;;;;;;;7.97;6.30;;;35.10;75.30;;;;;;5031378;28;20368;-53
2021/08/14 08:42:31;;;;;;;7.75;7.03;;;34.80;74.40;;;;;;5029956;28;20037;-54
2021/08/14 08:44:58;;;;;;;6.78;5.32;;;35.30;74.30;;;;;;5031209;28;20027;-54
2021/08/14 08:47:25;;;;;;;8.85;6.72;;;35.30;72.70;;;;;;5030080;28;20032;-53
2021/08/14 08:49:58;;;;;;;11.93;6.85;;;35.00;73.20;;;;;;5031676;28;20028;-52
2021/08/14 08:52:24;;;;;;;11.82;7.70;;;34.90;72.90;;;;;;5050341;28;20398;-50
2021/08/14 08:54:51;;;;;;;8.40;5.57;;;34.50;73.30;;;;;;5050964;28;20226;-52
2021/08/14 08:57:17;;;;;;;7.43;6.57;;;34.40;73.70;;;;;;5040423;28;20604;-49
2021/08/14 08:59:44;;;;;;;7.60;6.70;;;33.80;74.70;;;;;;5042406;28;20117;-52
2021/08/14 09:03:03;;;;;;;11.73;7.63;;;33.20;75.90;;;;;;5042698;28;20045;-55
2021/08/14 09:05:29;;;;;;;12.00;8.20;;;32.50;77.00;;;;;;4950594;28;20639;-53
2021/08/14 09:07:54;;;;;;;8.13;6.78;;;31.90;77.60;;;;;;5023643;28;20112;-53
2021/08/14 09:10:24;;;;;;;18.45;16.25;;;31.30;79.80;;;;;;5031072;28;20049;-51
2021/08/14 09:12:51;;;;;;;13.07;7.70;;;31.00;81.80;;;;;;5039184;28;20043;-55
2021/08/14 09:15:32;;;;;;;9.27;6.22;;;30.70;82.80;;;;;;5050369;28;20037;-52
2021/08/14 09:18:02;;;;;;;10.52;6.65;;;30.40;84.10;;;;;;5036214;28;20029;-50
2021/08/14 09:20:29;;;;;;;8.48;6.75;;;30.30;84.00;;;;;;5030412;28;20030;-49
2021/08/14 09:23:11;;;;;;;7.68;5.43;;;30.40;81.90;;;;;;5030501;28;20108;-51
2021/08/14 09:25:43;;;;;;;6.78;5.28;;;30.80;82.30;;;;;;5038823;28;20052;-52
2021/08/14 09:28:10;;;;;;;9.93;5.63;;;31.20;80.30;;;;;;5041001;28;20056;-56
2021/08/14 09:30:52;;;;;;;7.82;6.18;;;31.00;79.40;;;;;;5030341;28;20075;-52
2021/08/14 09:33:19;;;;;;;6.68;5.65;;;31.10;80.10;;;;;;5048690;28;20479;-52
2021/08/14 09:35:46;;;;;;;7.47;5.25;;;31.00;78.40;;;;;;5037549;28;20045;-57
2021/08/14 09:38:14;;;;;;;13.85;5.43;;;30.70;79.20;;;;;;5037390;28;20021;-56
2021/08/14 09:40:45;;;;;;;9.75;5.65;;;30.60;80.60;;;;;;5033555;28;20498;-53
2021/08/14 09:43:12;;;;;;;6.75;5.82;;;30.20;81.40;;;;;;5029763;28;20041;-53
2021/08/14 09:45:39;;;;;;;5.70;4.45;;;30.30;81.70;;;;;;5030189;28;20028;-54
2021/08/14 09:48:15;;;;;;;5.00;4.20;;;30.20;79.70;;;;;;5029561;28;20026;-56
2021/08/14 09:50:41;;;;;;;8.63;4.97;;;30.40;80.00;;;;;;5029770;28;20049;-55
2021/08/14 09:53:10;;;;;;;5.45;4.78;;;30.50;79.00;;;;;;5028209;28;20088;-50
2021/08/14 09:55:36;;;;;;;6.45;4.22;;;30.70;79.70;;;;;;5028451;28;20096;-52
2021/08/14 09:58:03;;;;;;;10.18;4.22;;;30.80;76.00;;;;;;5042659;28;20606;-56
2021/08/14 10:00:29;;;;;;;8.68;4.50;;;30.90;78.00;;;;;;5049223;28;20020;-55
2021/08/14 10:02:59;;;;;;;7.80;4.30;;;30.80;77.60;;;;;;5048705;28;20028;-52
2021/08/14 10:05:25;;;;;;;7.05;4.32;;;30.90;78.80;;;;;;5050160;28;20024;-51
2021/08/14 10:07:51;;;;;;;4.25;3.83;;;30.70;75.80;;;;;;5049597;28;20033;-60
2021/08/14 10:10:17;;;;;;;9.27;5.03;;;30.70;74.40;;;;;;5049721;28;20023;-61
2021/08/14 10:12:43;;;;;;;5.40;4.22;;;30.60;75.20;;;;;;5050198;28;20390;-60
2021/08/14 10:15:09;;;;;;;4.90;3.92;;;30.70;75.20;;;;;;5049803;28;20032;-60
2021/08/14 10:17:37;;;;;;;4.45;4.03;;;30.60;77.10;;;;;;5049147;28;20025;-60
2021/08/14 10:20:02;;;;;;;11.20;4.07;;;30.50;75.50;;;;;;5049888;28;20513;-59
2021/08/14 10:22:28;;;;;;;5.78;3.72;;;30.40;72.60;;;;;;5049855;28;20060;-60
2021/08/14 10:24:55;;;;;;;5.65;3.80;;;30.40;74.40;;;;;;5049748;28;20025;-58
2021/08/14 10:27:22;;;;;;;8.98;4.38;;;30.30;75.70;;;;;;5049073;28;20021;-59
2021/08/14 10:29:58;;;;;;;6.80;3.67;;;30.10;75.90;;;;;;5049840;28;20483;-55
2021/08/14 10:32:32;;;;;;;5.68;3.80;;;30.20;74.60;;;;;;5049949;28;20029;-59
2021/08/14 10:35:17;;;;;;;4.32;3.92;;;30.10;74.10;;;;;;5049679;28;20040;-59
2021/08/14 10:37:43;;;;;;;7.95;3.83;;;30.10;74.10;;;;;;5047984;28;20468;-58
2021/08/14 10:40:10;;;;;;;6.30;3.85;;;30.00;74.50;;;;;;5053638;28;20497;-58
2021/08/14 10:42:53;;;;;;;4.72;3.88;;;29.80;75.50;;;;;;5052314;28;20124;-59
2021/08/14 10:45:37;;;;;;;3.90;3.40;;;29.80;74.90;;;;;;5053626;28;20049;-59
2021/08/14 10:48:05;;;;;;;8.85;4.03;;;29.60;76.10;;;;;;5052841;28;20021;-59
2021/08/14 10:50:30;;;;;;;4.53;4.13;;;29.60;77.00;;;;;;5053511;28;20021;-60
2021/08/14 10:53:11;;;;;;;7.20;4.25;;;29.60;76.50;;;;;;5053459;28;20544;-59
2021/08/14 10:55:56;;;;;;;4.40;4.00;;;29.60;78.60;;;;;;5053267;28;20025;-59
2021/08/14 10:58:24;;;;;;;7.45;4.40;;;29.60;78.40;;;;;;5052494;28;20082;-57
2021/08/14 11:01:02;;;;;;;5.80;4.70;;;29.60;78.40;;;;;;5053201;28;20096;-57
2021/08/14 11:03:32;;;;;;;7.63;4.07;;;29.30;76.60;;;;;;5051604;28;20417;-58
2021/08/14 11:06:26;;;;;;;4.80;4.38;;;29.20;78.60;;;;;;5053194;28;20174;-55
2021/08/14 11:09:17;;;;;;;6.18;4.00;;;29.00;79.30;;;;;;5052584;28;20025;-57
2021/08/14 11:12:03;;;;;;;5.43;4.07;;;28.90;78.00;;;;;;5042152;28;20402;-58
2021/08/14 11:14:40;;;;;;;4.32;3.83;;;28.90;79.40;;;;;;5052809;28;20087;-59
2021/08/14 11:17:06;;;;;;;8.27;4.35;;;28.80;80.10;;;;;;5052728;28;20078;-56
2021/08/14 11:19:45;;;;;;;7.30;4.35;;;28.80;80.30;;;;;;5052027;28;20039;-58
2021/08/14 11:22:29;;;;;;;7.15;4.38;;;28.70;80.00;;;;;;5052755;28;20449;-60
2021/08/14 11:24:57;;;;;;;30.48;23.52;;;28.70;79.20;;;;;;5052980;28;20070;-59
2021/08/14 11:27:32;;;;;;;14.63;9.68;;;28.70;77.80;;;;;;5049205;28;20021;-64
2021/08/14 11:30:09;;;;;;;10.23;4.18;;;28.70;77.10;;;;;;5051550;28;20022;-53
2021/08/14 11:32:35;;;;;;;4.72;4.20;;;28.60;78.40;;;;;;5052771;28;20024;-62
2021/08/14 11:35:02;;;;;;;8.82;3.75;;;28.60;76.40;;;;;;5052928;28;20490;-61
2021/08/14 11:37:27;;;;;;;12.30;3.65;;;28.50;76.90;;;;;;5051961;28;20713;-53
2021/08/14 11:40:02;;;;;;;4.30;3.60;;;28.50;76.60;;;;;;5050973;28;20029;-49
2021/08/14 11:42:30;;;;;;;6.15;3.50;;;28.50;78.00;;;;;;5050572;28;20021;-53
2021/08/14 11:44:57;;;;;;;3.55;3.25;;;28.50;77.60;;;;;;5052664;28;20070;-53
2021/08/14 11:47:36;;;;;;;11.52;3.78;;;28.50;78.00;;;;;;5050027;28;20090;-52
2021/08/14 11:50:05;;;;;;;5.38;3.72;;;28.50;77.30;;;;;;5051283;28;20017;-50
2021/08/14 11:52:30;;;;;;;6.80;3.60;;;28.50;75.90;;;;;;5051029;28;20032;-53
2021/08/14 11:54:58;;;;;;;8.25;3.60;;;28.40;75.10;;;;;;5052074;28;20033;-55
2021/08/14 11:57:28;;;;;;;4.03;3.72;;;28.40;74.50;;;;;;5051499;28;20100;-52
2021/08/14 11:59:54;;;;;;;5.47;3.13;;;28.40;77.00;;;;;;5051847;28;20029;-52
2021/08/14 12:02:24;;;;;;;4.47;3.72;;;28.40;75.20;;;;;;5051832;28;20420;-49
2021/08/14 12:04:51;;;;;;;5.65;3.20;;;28.40;73.40;;;;;;5051575;28;20063;-52
2021/08/14 12:07:17;;;;;;;9.18;3.30;;;28.40;72.90;;;;;;5051672;28;20028;-49
2021/08/14 12:09:43;;;;;;;4.60;3.55;;;28.40;72.90;;;;;;5051566;28;20108;-51
2021/08/14 12:12:16;;;;;;;5.70;4.22;;;28.50;73.10;;;;;;5051877;28;20500;-51
2021/08/14 12:14:42;;;;;;;3.50;2.95;;;28.50;73.90;;;;;;5051375;28;20516;-53
2021/08/14 12:17:08;;;;;;;5.22;3.30;;;28.60;73.60;;;;;;5051371;28;20108;-55
2021/08/14 12:19:34;;;;;;;4.57;3.20;;;28.60;73.50;;;;;;5051356;28;20107;-51
2021/08/14 12:22:11;;;;;;;4.53;3.20;;;28.70;73.40;;;;;;5051353;28;20017;-56
2021/08/14 12:24:36;;;;;;;6.38;3.58;;;28.70;73.10;;;;;;5051451;28;20383;-54
2021/08/14 12:27:02;;;;;;;3.58;3.17;;;28.60;73.60;;;;;;5051509;28;20055;-51
2021/08/14 12:29:28;;;;;;;6.50;3.42;;;28.70;74.30;;;;;;5051398;28;20017;-52
2021/08/14 12:31:56;;;;;;;4.90;3.58;;;28.70;75.40;;;;;;5051342;28;20029;-55
2021/08/14 12:34:30;;;;;;;3.47;3.17;;;28.70;74.80;;;;;;5051112;28;20032;-52
2021/08/14 12:37:01;;;;;;;3.60;3.28;;;28.70;74.30;;;;;;5051340;28;20043;-53
2021/08/14 12:40:04;;;;;;;5.13;2.97;;;28.80;74.10;;;;;;5050795;28;20493;-53
2021/08/14 12:42:32;;;;;;;6.80;3.85;;;28.90;73.40;;;;;;4969644;28;20250;-49